Detall de PIREP

Printer-friendly versionPDF version

[2012/08/30 10:02:00]
Flight IATA:CT0001
Pilot Number:044
Company ICAO:CAT
Aircraft Type:BE20/A
PAX:4
Departing Airport: LEVC
Destination Airport: LERI
Alternate Airport:LEAL
Online: VATSIM
Route:ALT DCT
Flight Level:F080
No Slew and time accel
No pause
Crash detect
Detect pilot in Cockpit between each 30 and 45 minutes
10:02 Zero fuel Weight: 8737 Lbs, Fuel Weight: 3646 Lbs
10:02 VATSIM:LEVC 300930Z 09007KT 060V130 9999 SCT030 29/20 Q1018 NOSIG
10:02 VATSIM:LERI 300900Z 09002KT CAVOK 30/17 Q1016 NOSIG
10:02 VOICE CATALONIAN
10:05 Parking Brakes off
10:12 Take-off
10:12 Take off Weight: 12358 Lbs
10:12 Wind: 111º @ 007 Knots Heading: 114º
10:12 POS N39º 29´ 27´´ W000º 29´ 10´´
10:12 Gear Up: 126 Knots
10:12 Flaps:1 at 126 Knots
10:12 Flaps:0 at 126 Knots
10:19 TOC
10:19 Fuel Weight: 3513 Lb
10:27 Wind:082º@015 Knots Heading: 178º Ground Speed: 221 Knots Altitude 8129 ft
10:37 TOD
10:37 Fuel Weight: 3340 Lb
10:42 Wind:082º@017 Knots Heading: 239º Ground Speed: 203 Knots Altitude 5590 ft
10:55 Gear Down: 147 Knots
10:55 Flaps:1 at 145 Knots
10:56 Flaps:2 at 150 Knots
10:57 Wind:084º@008 Knots Heading: 057º Ground Speed: 132 Knots Altitude 1240 ft
10:58 TouchDown:Rate -326 ft/min Speed: 111 Knots
10:58 VATSIM:LERI 301000Z VRB02KT CAVOK 33/16 Q1016 NOSIG
10:58 Land
10:58 Wind:079º@008 Knots
10:58 Heading: 065º
10:58 Flight Duration: 00:46
10:58 Landing Weight: 11942 Lbs
10:58 POS N37º 57´ 19´´ W001º 13´ 20´´
10:59 Parking brakes on
10:59 Block to Block Duration: 00:54
10:59 Final Fuel: 3201 Lbls
10:59 Spent Fuel: 445 Lbls
10:59 Flight Length: 154 NM
10:59 TOD Land Length: 65 NM

Exportar CSV

Powered by Drupal - Modified by Danger4k